VRTM - Saison 11

Position Fahrer Laps Zeit Diff Fahrzeug Status Gesamt Bonuspunkte Strafpunkte
1 Thorben Kexel 22 31:10.392 - Mercedes-AMG C63 DTM Beendet 40 0 0
2 Markus Studer 22 31:17.399 0:07.007 Audi RS 5 DTM 2015 Beendet 35 0 0
3 Tom Ritter 22 31:36.374 0:25.982 Audi RS 5 DTM 2015 Beendet 31 0 0
4 Dennis Hillmann 22 31:38.828 0:28.436 Mercedes-AMG C63 DTM Beendet 39 11 0
5 Jörg Spindler 22 31:44.587 0:34.195 Audi RS 5 DTM 2015 Beendet 26 0 0
6 Manuel Schmidt 22 31:47.759 0:37.367 BMW M4 DTM 2015 Beendet 24 0 0
7 André G. 22 31:51.686 0:41.294 BMW M4 DTM 2015 Beendet 22 0 0
8 Axel Dorner 22 31:58.915 0:48.523 Audi RS 5 DTM 2015 Beendet 20 0 0
9 Marco Grontzki 22 32:00.074 0:49.682 Mercedes-AMG C63 DTM Beendet 18 0 0
10 Roman Holzi 22 32:00.536 0:50.144 Audi RS 5 DTM 2015 Beendet 16 0 0
11 Marc Copa 22 32:06.022 0:55.630 Mercedes-AMG C63 DTM Beendet 14 0 0
12 Nils Jordan 22 32:13.508 1:03.116 Audi RS 5 DTM 2015 Beendet 13 0 0
13 Nils Herbstrieth 22 32:14.332 1:03.940 BMW M4 DTM 2015 Beendet 12 0 0
14 Marcel Wolf 22 32:15.243 1:04.851 Mercedes-AMG C63 DTM Beendet 11 0 0
15 Stefan Findeklee 22 32:18.842 1:08.450 BMW M4 DTM 2015 Beendet 20 10 0
16 Max Ohliger 22 32:28.746 1:18.354 BMW M4 DTM 2015 Beendet 9 0 0
17 Sirko Sundermann 22 32:28.941 1:18.549 Audi RS 5 DTM 2015 Beendet 8 0 0
18 Gil Ritter 22 32:31.354 1:20.962 Audi RS 5 DTM 2015 Beendet 7 0 0

Rennverlauf

Die schnellsten 5 pro Runde

Runde 1

Pos Rennpos Fahrer Zeit Diff
1 1 Thorben Kexel 1:30.700 -
2 2 Markus Studer 1:31.328 0:00.628
3 3 Jörg Spindler 1:32.468 0:01.768
4 4 Tom Ritter 1:33.784 0:03.084
5 5 Roman Holzi 1:35.069 0:04.369

Runde 2

Pos Rennpos Fahrer Zeit Diff
1 1 Thorben Kexel 1:24.485 -
2 2 Markus Studer 1:24.730 0:00.245
3 3 Jörg Spindler 1:25.605 0:01.120
4 4 Tom Ritter 1:26.179 0:01.694
5 5 Roman Holzi 1:26.308 0:01.823

Runde 3

Pos Rennpos Fahrer Zeit Diff
1 1 Thorben Kexel 1:24.561 -
2 5 Roman Holzi 1:25.612 0:01.051
3 4 Tom Ritter 1:25.766 0:01.205
4 7 Dennis Hillmann 1:25.817 0:01.256
5 2 Jörg Spindler 1:25.923 0:01.362

Runde 4

Pos Rennpos Fahrer Zeit Diff
1 1 Thorben Kexel 1:24.789 -
2 2 Markus Studer 1:24.914 0:00.125
3 4 Tom Ritter 1:25.561 0:00.772
4 7 Dennis Hillmann 1:25.681 0:00.892
5 5 Roman Holzi 1:25.769 0:00.980

Runde 5

Pos Rennpos Fahrer Zeit Diff
1 3 Jörg Spindler 1:24.666 -
2 2 Markus Studer 1:24.855 0:00.189
3 1 Thorben Kexel 1:24.942 0:00.276
4 7 Dennis Hillmann 1:25.485 0:00.819
5 6 Manuel Schmidt 1:25.693 0:01.027

Runde 6

Pos Rennpos Fahrer Zeit Diff
1 2 Markus Studer 1:24.980 -
2 5 Roman Holzi 1:25.277 0:00.297
3 6 Dennis Hillmann 1:25.300 0:00.320
4 1 Thorben Kexel 1:25.326 0:00.346
5 10 André G. 1:25.448 0:00.468

Runde 7

Pos Rennpos Fahrer Zeit Diff
1 1 Thorben Kexel 1:24.502 -
2 2 Markus Studer 1:24.682 0:00.180
3 4 Roman Holzi 1:24.854 0:00.352
4 10 André G. 1:25.375 0:00.873
5 3 Tom Ritter 1:25.485 0:00.983

Runde 8

Pos Rennpos Fahrer Zeit Diff
1 2 Markus Studer 1:24.210 -
2 1 Thorben Kexel 1:24.524 0:00.314
3 7 Jörg Spindler 1:25.289 0:01.079
4 3 Tom Ritter 1:25.361 0:01.151
5 4 Roman Holzi 1:25.427 0:01.217

Runde 9

Pos Rennpos Fahrer Zeit Diff
1 1 Thorben Kexel 1:23.878 -
2 2 Markus Studer 1:24.957 0:01.079
3 5 Dennis Hillmann 1:25.109 0:01.231
4 7 Jörg Spindler 1:25.271 0:01.393
5 3 Tom Ritter 1:25.453 0:01.575

Runde 10

Pos Rennpos Fahrer Zeit Diff
1 2 Markus Studer 1:24.780 -
2 4 Dennis Hillmann 1:25.278 0:00.498
3 3 Tom Ritter 1:25.661 0:00.881
4 16 Marcel Wolf 1:25.743 0:00.963
5 5 Manuel Schmidt 1:25.745 0:00.965

Runde 11

Pos Rennpos Fahrer Zeit Diff
1 1 Thorben Kexel 1:24.019 -
2 2 Markus Studer 1:24.118 0:00.099
3 5 Manuel Schmidt 1:25.536 0:01.517
4 6 Jörg Spindler 1:25.556 0:01.537
5 8 André G. 1:25.748 0:01.729

Runde 12

Pos Rennpos Fahrer Zeit Diff
1 1 Thorben Kexel 1:24.165 -
2 2 Markus Studer 1:24.987 0:00.822
3 6 Jörg Spindler 1:25.171 0:01.006
4 4 Dennis Hillmann 1:25.239 0:01.074
5 9 Roman Holzi 1:25.320 0:01.155

Runde 13

Pos Rennpos Fahrer Zeit Diff
1 1 Thorben Kexel 1:24.052 -
2 12 Nils Herbstrieth 1:24.936 0:00.884
3 2 Markus Studer 1:24.989 0:00.937
4 6 Jörg Spindler 1:25.360 0:01.308
5 5 Manuel Schmidt 1:25.600 0:01.548

Runde 14

Pos Rennpos Fahrer Zeit Diff
1 1 Thorben Kexel 1:24.255 -
2 2 Markus Studer 1:25.392 0:01.137
3 11 Roman Holzi 1:25.427 0:01.172
4 5 Manuel Schmidt 1:25.536 0:01.281
5 4 Dennis Hillmann 1:25.556 0:01.301

Runde 15

Pos Rennpos Fahrer Zeit Diff
1 1 Thorben Kexel 1:24.510 -
2 6 Jörg Spindler 1:25.443 0:00.933
3 11 Roman Holzi 1:25.460 0:00.950
4 7 André G. 1:25.465 0:00.955
5 3 Tom Ritter 1:25.477 0:00.967

Runde 16

Pos Rennpos Fahrer Zeit Diff
1 1 Thorben Kexel 1:24.290 -
2 6 Jörg Spindler 1:24.882 0:00.592
3 7 André G. 1:25.156 0:00.866
4 2 Markus Studer 1:25.160 0:00.870
5 3 Tom Ritter 1:25.589 0:01.299

Runde 17

Pos Rennpos Fahrer Zeit Diff
1 1 Thorben Kexel 1:23.268 -
2 6 Jörg Spindler 1:24.994 0:01.726
3 7 André G. 1:25.100 0:01.832
4 2 Markus Studer 1:25.199 0:01.931
5 11 Roman Holzi 1:25.313 0:02.045

Runde 18

Pos Rennpos Fahrer Zeit Diff
1 2 Markus Studer 1:24.573 -
2 10 Roman Holzi 1:24.997 0:00.424
3 1 Thorben Kexel 1:25.018 0:00.445
4 6 Jörg Spindler 1:25.316 0:00.743
5 9 Marco Grontzki 1:25.496 0:00.923

Runde 19

Pos Rennpos Fahrer Zeit Diff
1 1 Thorben Kexel 1:23.982 -
2 2 Markus Studer 1:24.846 0:00.864
3 5 Manuel Schmidt 1:24.993 0:01.011
4 6 Jörg Spindler 1:25.038 0:01.056
5 7 André G. 1:25.427 0:01.445

Runde 20

Pos Rennpos Fahrer Zeit Diff
1 2 Markus Studer 1:24.881 -
2 10 Roman Holzi 1:25.295 0:00.414
3 7 André G. 1:25.397 0:00.516
4 3 Tom Ritter 1:25.579 0:00.698
5 14 Marcel Wolf 1:25.765 0:00.884

Runde 21

Pos Rennpos Fahrer Zeit Diff
1 1 Thorben Kexel 1:24.235 -
2 10 Roman Holzi 1:24.820 0:00.585
3 2 Markus Studer 1:24.858 0:00.623
4 4 Dennis Hillmann 1:25.471 0:01.236
5 7 André G. 1:25.563 0:01.328

Runde 22

Pos Rennpos Fahrer Zeit Diff
1 2 Markus Studer 1:25.180 -
2 7 André G. 1:25.289 0:00.109
3 5 Jörg Spindler 1:25.354 0:00.174
4 1 Thorben Kexel 1:25.497 0:00.317
5 18 Gil Ritter 1:25.895 0:00.715

SERVER

0/24
VRL Gentlemen Drivers Cup (GDC) Trainingsserver
TrainingDaytona International Speedway - Road Course
0/103
virtualracing.org #1 GTMG1
TrainingSpa-Francorchamps
0/103
virtualracing.org #2 FNS
TrainingStockcar, Martinsville Speedway
0/103
virtualracing.org #3 FS
TrainingOschersleben Motorsport Park
0/103
virtualracing.org #4 LSM
TrainingLe Mans 24h
0/45
virtualracing.org #5 F1S
TrainingFormelDLM, 07. Spanien - Barcelona GP
0/45
virtualracing.org #6 TWS
TrainingVirtual Racing, VRTWS, 06. Suedafrika-Kyalami
0/103
virtualracing.org P5 ES
TrainingSebring International Raceway
0/32
virtualracing.org#4 GTC Training Standard
TrainingSachsenring - Grand Prix
0/30
virtualracing.org#5 GTC Training A
TrainingSachsenring - Grand Prix
0/33
virtualracing.org#6 GTC Training B
TrainingSachsenring - Grand Prix
0/33
virtualracing.org#7 GTC Training C
TrainingSachsenring - Grand Prix
0/32
virtualracing.org#11 FAC VIP Training
TrainingAutódromo Internacional do Algarve - GP
1/60
virtualracing.org#12 VRLN VR1 VR4H Training
TrainingNordschleife - VLN
0/70
virtualracing.org#13 VRLN VR3T Training
TrainingNordschleife - VLN
0/58
virtualracing.org#14 VRLN VR2GT VR5C Training
TrainingNordschleife - VLN
0/44
virtualracing.org#16 VRLNIV Lauf 3 Qualifikation Grid 2
TrainingNordschleife - VLN Qualifikation
0/60
virtualracing.org#17 VRLNIV Lauf 3 Qualifikation Grid 1
TrainingNordschleife - VLN Qualifikation
0/30
virtualracing.org#23 VRCO Training 1
TrainingAutódromo José Carlos Pace - Grand Prix
0/16
virtualracing.org#28 VR240 Test und Einstellfahrt
TrainingAspertsham - Hargassen
0/24
virtualracing.org#30 ALT Training
TrainingKyalami - Grand Prix Circuit 1961-87